createdAt,value
2023-02-02T00:00:20.249Z,23.1
2023-02-02T00:05:20.215Z,23.1
2023-02-02T00:10:20.365Z,22.8
2023-02-02T00:15:20.384Z,22.5
2023-02-02T00:20:20.274Z,22.2
2023-02-02T00:25:20.342Z,22.1
2023-02-02T00:30:17.268Z,22.0
2023-02-02T00:35:17.352Z,22.0
2023-02-02T00:40:20.726Z,22.1
2023-02-02T00:45:20.360Z,22.7
2023-02-02T00:50:20.392Z,23.3
2023-02-02T00:55:20.455Z,23.5
2023-02-02T01:00:20.513Z,23.7
2023-02-02T01:05:20.517Z,23.8
2023-02-02T01:10:20.514Z,23.8
2023-02-02T01:15:20.571Z,23.7
2023-02-02T01:20:20.547Z,23.6
2023-02-02T01:25:17.355Z,23.1
2023-02-02T01:30:20.583Z,22.9
2023-02-02T01:35:20.672Z,23.2
2023-02-02T01:40:20.443Z,23.3
2023-02-02T01:45:18.673Z,23.3
2023-02-02T01:50:18.759Z,22.7
2023-02-02T01:55:18.555Z,22.3
2023-02-02T02:00:15.576Z,22.0
2023-02-02T02:05:15.498Z,21.7
2023-02-02T02:10:18.679Z,21.4
2023-02-02T02:15:18.755Z,21.2
2023-02-02T02:20:18.632Z,21.0
2023-02-02T02:25:18.870Z,20.9
2023-02-02T02:30:18.726Z,21.1
2023-02-02T02:35:18.685Z,21.4
2023-02-02T02:40:18.720Z,21.6
2023-02-02T02:45:18.765Z,21.6
2023-02-02T02:50:18.794Z,21.5
2023-02-02T02:55:15.697Z,21.6
2023-02-02T03:00:15.612Z,21.7
2023-02-02T03:05:18.894Z,21.9
2023-02-02T03:10:18.814Z,22.1
2023-02-02T03:15:18.920Z,22.1
2023-02-02T03:20:18.947Z,22.2
2023-02-02T03:25:18.900Z,22.4
2023-02-02T03:30:18.962Z,22.4
2023-02-02T03:35:18.959Z,22.3
2023-02-02T03:40:18.850Z,22.1
2023-02-02T03:45:18.841Z,22.0
2023-02-02T03:50:15.903Z,21.9
2023-02-02T03:55:15.852Z,21.8
2023-02-02T04:00:18.984Z,21.7
2023-02-02T04:05:19.008Z,21.7
2023-02-02T04:10:18.921Z,21.6
2023-02-02T04:15:19.076Z,21.5
2023-02-02T04:20:19.048Z,21.5
2023-02-02T04:25:19.004Z,21.7
2023-02-02T04:30:19.063Z,21.6
2023-02-02T04:35:19.052Z,21.6
2023-02-02T04:40:19.130Z,21.5
2023-02-02T04:45:16.057Z,21.4
2023-02-02T04:50:19.201Z,21.3
2023-02-02T04:55:19.117Z,21.3
2023-02-02T05:00:20.389Z,21.1
2023-02-02T05:05:20.407Z,21.0
2023-02-02T05:10:17.271Z,20.8
2023-02-02T05:15:17.351Z,20.6
2023-02-02T05:20:20.509Z,20.6
2023-02-02T05:25:20.466Z,20.6
2023-02-02T05:30:20.535Z,20.6
2023-02-02T05:35:20.565Z,20.6
2023-02-02T05:40:20.411Z,20.6
2023-02-02T05:45:20.563Z,20.6
2023-02-02T05:50:20.602Z,20.6
2023-02-02T05:55:20.631Z,20.6
2023-02-02T06:00:20.609Z,20.7
2023-02-02T06:05:17.463Z,20.6
2023-02-02T06:10:18.587Z,20.8
2023-02-02T06:15:18.598Z,20.9
2023-02-02T06:20:21.315Z,21.0
2023-02-02T06:25:18.694Z,21.1
2023-02-02T06:30:18.658Z,21.3
2023-02-02T06:35:18.636Z,21.5
2023-02-02T06:40:18.718Z,21.8
2023-02-02T06:45:15.656Z,21.9
2023-02-02T06:50:15.597Z,22.0
2023-02-02T06:55:18.769Z,22.0
2023-02-02T07:00:20.447Z,22.1
2023-02-02T07:05:18.867Z,22.1
2023-02-02T07:11:13.794Z,22.2
2023-02-02T07:15:18.764Z,22.3
2023-02-02T07:20:18.749Z,22.4
2023-02-02T07:25:18.787Z,22.5
2023-02-02T07:30:18.918Z,22.6
2023-02-02T07:35:18.821Z,22.6
2023-02-02T07:40:15.921Z,22.7
2023-02-02T07:45:27.244Z,22.6
2023-02-02T07:50:18.903Z,22.6
2023-02-02T07:55:19.067Z,22.6
2023-02-02T08:00:18.932Z,22.6
2023-02-02T08:05:18.945Z,22.6
2023-02-02T08:10:18.869Z,22.6
2023-02-02T08:15:18.955Z,22.6
2023-02-02T08:20:19.034Z,22.6
2023-02-02T08:25:18.957Z,22.6
2023-02-02T08:30:15.841Z,22.5
2023-02-02T08:35:15.808Z,22.5
2023-02-02T08:40:19.141Z,22.5
2023-02-02T08:46:02.036Z,22.5
2023-02-02T08:50:19.059Z,22.5
2023-02-02T08:55:19.060Z,22.4
2023-02-02T09:00:19.119Z,22.4
2023-02-02T09:05:19.065Z,22.4
2023-02-02T09:10:19.050Z,22.4
2023-02-02T09:15:19.281Z,22.4
2023-02-02T09:20:20.613Z,22.4
2023-02-02T09:25:16.057Z,22.3
2023-02-02T09:30:16.009Z,22.3
2023-02-02T09:35:19.291Z,22.3
2023-02-02T09:40:19.429Z,22.3
2023-02-02T09:45:19.499Z,22.3
2023-02-02T09:50:19.280Z,22.3
2023-02-02T09:55:19.280Z,22.2
2023-02-02T10:00:19.294Z,22.2
2023-02-02T10:05:19.232Z,22.2
2023-02-02T10:10:19.278Z,22.2
2023-02-02T10:15:19.266Z,22.2
2023-02-02T10:20:16.099Z,22.2
2023-02-02T10:25:19.445Z,22.1
2023-02-02T10:30:19.392Z,22.1
2023-02-02T10:35:19.323Z,22.1
2023-02-02T10:40:19.415Z,22.1
2023-02-02T10:45:19.393Z,22.1
2023-02-02T10:50:19.536Z,22.1
2023-02-02T10:55:19.466Z,22.1
2023-02-02T11:00:22.572Z,22.2
2023-02-02T11:05:19.462Z,22.2
2023-02-02T11:10:16.469Z,22.2
2023-02-02T11:15:16.361Z,22.2
2023-02-02T11:20:19.778Z,22.2
2023-02-02T11:25:19.515Z,22.2
2023-02-02T11:30:19.585Z,22.2
2023-02-02T11:35:19.683Z,22.2
2023-02-02T11:40:19.599Z,22.2
2023-02-02T11:45:19.559Z,22.3
2023-02-02T11:50:19.473Z,22.3
2023-02-02T11:55:19.622Z,22.3
2023-02-02T12:00:19.634Z,22.3
2023-02-02T12:05:16.482Z,22.3
2023-02-02T12:10:16.539Z,22.3
2023-02-02T12:15:19.812Z,22.3
2023-02-02T12:20:16.660Z,22.4
2023-02-02T12:25:19.796Z,22.4
2023-02-02T12:30:19.708Z,22.5
2023-02-02T12:35:19.714Z,22.6
2023-02-02T12:40:19.838Z,22.7
2023-02-02T12:45:19.748Z,22.7
2023-02-02T12:50:19.863Z,22.9
2023-02-02T12:55:19.788Z,23.0
2023-02-02T13:00:16.682Z,23.1
2023-02-02T13:05:19.914Z,23.4
2023-02-02T13:10:19.841Z,23.5
2023-02-02T13:15:20.949Z,23.7
2023-02-02T13:20:19.895Z,23.8
2023-02-02T13:25:19.881Z,24.0
2023-02-02T13:30:19.922Z,24.2
2023-02-02T13:35:19.893Z,24.3
2023-02-02T13:40:19.904Z,24.5
2023-02-02T13:45:20.014Z,24.6
2023-02-02T13:50:16.891Z,24.9
2023-02-02T13:55:16.760Z,24.9
2023-02-02T14:00:19.888Z,25.1
2023-02-02T14:05:19.895Z,25.2
2023-02-02T14:10:19.977Z,25.3
2023-02-02T14:15:20.016Z,25.5
2023-02-02T14:20:19.928Z,25.7
2023-02-02T14:25:19.979Z,26.0
2023-02-02T14:30:19.985Z,26.2
2023-02-02T14:35:20.059Z,26.4
2023-02-02T14:40:20.031Z,26.5
2023-02-02T14:45:17.042Z,26.9
2023-02-02T14:50:16.952Z,27.0
2023-02-02T14:55:20.130Z,27.1
2023-02-02T15:00:20.165Z,27.4
2023-02-02T15:05:20.096Z,27.6
2023-02-02T15:10:20.105Z,27.7
2023-02-02T15:15:20.129Z,27.9
2023-02-02T15:20:20.168Z,28.1
2023-02-02T15:25:20.139Z,28.7
2023-02-02T15:30:20.231Z,29.0
2023-02-02T15:35:20.206Z,29.1
2023-02-02T15:40:17.103Z,29.4
2023-02-02T15:45:20.182Z,29.5
2023-02-02T15:50:20.219Z,29.9
2023-02-02T15:55:20.212Z,30.2
2023-02-02T16:00:20.366Z,30.3
2023-02-02T16:05:20.258Z,30.3
2023-02-02T16:10:20.304Z,30.5
2023-02-02T16:15:20.250Z,30.6
2023-02-02T16:20:20.244Z,30.8
2023-02-02T16:25:20.366Z,30.8
2023-02-02T16:30:17.179Z,30.9
2023-02-02T16:35:17.205Z,30.9
2023-02-02T16:40:22.593Z,31.0
2023-02-02T16:45:20.395Z,31.2
2023-02-02T16:50:20.396Z,31.4
2023-02-02T16:55:20.403Z,31.3
2023-02-02T17:00:20.360Z,31.6
2023-02-02T17:05:20.476Z,31.9
2023-02-02T17:10:20.430Z,31.9
2023-02-02T17:15:20.457Z,32.3
2023-02-02T17:20:20.507Z,32.6
2023-02-02T17:25:17.334Z,33.0
2023-02-02T17:30:17.388Z,32.6
2023-02-02T17:35:20.514Z,32.3
2023-02-02T17:40:20.599Z,32.2
2023-02-02T17:45:20.489Z,32.4
2023-02-02T17:50:20.597Z,32.7
2023-02-02T17:55:20.542Z,32.7
2023-02-02T18:00:20.541Z,32.9
2023-02-02T18:05:20.594Z,33.0
2023-02-02T18:10:20.590Z,33.0
2023-02-02T18:15:17.592Z,33.1
2023-02-02T18:20:17.354Z,33.3
2023-02-02T18:25:18.817Z,33.4
2023-02-02T18:30:18.717Z,33.5
2023-02-02T18:35:18.655Z,33.7
2023-02-02T18:40:18.645Z,33.6
2023-02-02T18:45:18.736Z,33.7
2023-02-02T18:50:18.690Z,33.8
2023-02-02T18:55:15.584Z,34.0
2023-02-02T19:00:15.547Z,34.0
2023-02-02T19:05:18.721Z,34.1
2023-02-02T19:10:18.735Z,34.2
2023-02-02T19:15:18.664Z,34.3
2023-02-02T19:20:18.787Z,34.4
2023-02-02T19:25:18.769Z,34.5
2023-02-02T19:30:18.708Z,34.6
2023-02-02T19:35:18.833Z,34.8
2023-02-02T19:40:18.718Z,34.9
2023-02-02T19:45:18.886Z,34.9
2023-02-02T19:50:15.665Z,35.0
2023-02-02T19:55:18.913Z,35.1
2023-02-02T20:00:18.842Z,35.1
2023-02-02T20:05:18.992Z,35.4
2023-02-02T20:10:18.775Z,35.6
2023-02-02T20:15:18.771Z,35.8
2023-02-02T20:20:18.730Z,35.9
2023-02-02T20:25:18.916Z,35.9
2023-02-02T20:30:18.981Z,35.9
2023-02-02T20:35:18.794Z,35.9
2023-02-02T20:40:15.776Z,35.9
2023-02-02T20:45:15.694Z,36.0
2023-02-02T20:50:19.972Z,36.1
2023-02-02T20:55:19.983Z,35.9
2023-02-02T21:00:20.041Z,35.8
2023-02-02T21:05:19.929Z,35.8
2023-02-02T21:10:19.989Z,35.7
2023-02-02T21:15:16.847Z,35.6
2023-02-02T21:20:16.859Z,35.6
2023-02-02T21:25:20.033Z,35.5
2023-02-02T21:30:19.971Z,35.4
2023-02-02T21:35:20.081Z,35.3
2023-02-02T21:40:19.992Z,35.2
2023-02-02T21:45:20.014Z,35.2
2023-02-02T21:50:20.024Z,35.0
2023-02-02T21:55:20.075Z,34.9
2023-02-02T22:00:20.106Z,34.8
2023-02-02T22:05:20.130Z,34.6
2023-02-02T22:10:17.034Z,34.6
2023-02-02T22:15:17.107Z,34.4
2023-02-02T22:20:20.120Z,34.1
2023-02-02T22:25:20.129Z,33.7
2023-02-02T22:30:20.238Z,33.5
2023-02-02T22:35:20.140Z,33.6
2023-02-02T22:40:20.186Z,33.5
2023-02-02T22:45:20.229Z,33.4
2023-02-02T22:50:20.121Z,33.3
2023-02-02T22:55:20.175Z,33.0
2023-02-02T23:00:20.253Z,32.9
2023-02-02T23:05:17.100Z,32.7
2023-02-02T23:10:20.264Z,32.6
2023-02-02T23:15:20.344Z,32.3
2023-02-02T23:20:20.236Z,32.1
2023-02-02T23:25:20.239Z,32.0
2023-02-02T23:30:20.422Z,32.0
2023-02-02T23:35:20.192Z,31.9
2023-02-02T23:40:20.379Z,31.8
2023-02-02T23:45:20.338Z,31.8
2023-02-02T23:50:20.304Z,31.7
2023-02-02T23:55:17.283Z,31.5
